Greenwood, Texas
Current Conditions -  °F | °C
As of 1:15 PM on Friday 21 Nov 2014 (Local Time) from KLUD Reporting Station
Overcast Overcast  
Wind Chill: 68°   Ceiling: 1900
Heat Index: 68°   Visibility: 10mi
Dew Point: 58°   Wind: 13mph
Humidity: 70%   Direction: 160°SSE
Pressure: 30.05"   Gusts: 17mph
Location:  33.38°N, 97.47°W
Report Text: KLUD 211915Z AUTO 16011G15KT 10SM BKN019 BKN028 OVC043 20/15 A3005 RMK AO2 T02020145
Loading
Personal Weather Stations






























Interactive Weather Map New forecast layout! Learn more

10-Day Weather Forecast

Advertisements
Track Severe Weather on mobile